sensor_id;sensor_type;location;lat;lon;timestamp;P1;durP1;ratioP1;P2;durP2;ratioP2
5137;SDS011;53959;53.626;11.410;2022-12-01T00:02:07;163.03;;;53.80;;
5137;SDS011;53959;53.626;11.410;2022-12-01T00:04:33;161.97;;;53.70;;
5137;SDS011;53959;53.626;11.410;2022-12-01T00:06:58;138.37;;;49.00;;
5137;SDS011;53959;53.626;11.410;2022-12-01T00:09:24;155.57;;;51.70;;
5137;SDS011;53959;53.626;11.410;2022-12-01T00:12:08;154.77;;;50.80;;
5137;SDS011;53959;53.626;11.410;2022-12-01T00:14:33;153.40;;;50.63;;
5137;SDS011;53959;53.626;11.410;2022-12-01T00:16:59;138.73;;;47.53;;
5137;SDS011;53959;53.626;11.410;2022-12-01T00:19:25;152.67;;;51.27;;
5137;SDS011;53959;53.626;11.410;2022-12-01T00:21:51;152.53;;;51.00;;
5137;SDS011;53959;53.626;11.410;2022-12-01T00:24:16;148.97;;;50.73;;
5137;SDS011;53959;53.626;11.410;2022-12-01T00:26:42;139.80;;;49.00;;
5137;SDS011;53959;53.626;11.410;2022-12-01T00:29:08;147.90;;;49.93;;
5137;SDS011;53959;53.626;11.410;2022-12-01T00:31:33;161.17;;;48.93;;
5137;SDS011;53959;53.626;11.410;2022-12-01T00:34:00;144.60;;;49.50;;
5137;SDS011;53959;53.626;11.410;2022-12-01T00:36:26;143.67;;;50.83;;
5137;SDS011;53959;53.626;11.410;2022-12-01T00:38:52;146.83;;;51.37;;
5137;SDS011;53959;53.626;11.410;2022-12-01T00:41:18;151.87;;;49.37;;
5137;SDS011;53959;53.626;11.410;2022-12-01T00:43:45;144.63;;;48.80;;
5137;SDS011;53959;53.626;11.410;2022-12-01T00:46:10;152.80;;;52.17;;
5137;SDS011;53959;53.626;11.410;2022-12-01T00:48:36;143.27;;;47.90;;
5137;SDS011;53959;53.626;11.410;2022-12-01T00:51:01;138.03;;;49.17;;
5137;SDS011;53959;53.626;11.410;2022-12-01T00:53:27;149.53;;;51.50;;
5137;SDS011;53959;53.626;11.410;2022-12-01T00:55:53;161.07;;;49.40;;
5137;SDS011;53959;53.626;11.410;2022-12-01T00:58:19;142.17;;;50.57;;
5137;SDS011;53959;53.626;11.410;2022-12-01T01:00:45;139.43;;;49.40;;
5137;SDS011;53959;53.626;11.410;2022-12-01T01:03:10;145.37;;;50.50;;
5137;SDS011;53959;53.626;11.410;2022-12-01T01:05:37;136.40;;;47.60;;
5137;SDS011;53959;53.626;11.410;2022-12-01T01:08:10;138.87;;;49.40;;
5137;SDS011;53959;53.626;11.410;2022-12-01T01:10:37;146.90;;;51.03;;
5137;SDS011;53959;53.626;11.410;2022-12-01T01:13:03;141.97;;;48.37;;
5137;SDS011;53959;53.626;11.410;2022-12-01T01:15:29;135.67;;;50.43;;
5137;SDS011;53959;53.626;11.410;2022-12-01T01:17:55;141.13;;;46.37;;
5137;SDS011;53959;53.626;11.410;2022-12-01T01:20:20;161.57;;;49.90;;
5137;SDS011;53959;53.626;11.410;2022-12-01T01:22:46;142.63;;;50.33;;
5137;SDS011;53959;53.626;11.410;2022-12-01T01:25:11;147.50;;;48.47;;
5137;SDS011;53959;53.626;11.410;2022-12-01T01:27:37;155.97;;;52.80;;
5137;SDS011;53959;53.626;11.410;2022-12-01T01:30:02;164.80;;;52.80;;
5137;SDS011;53959;53.626;11.410;2022-12-01T01:32:28;146.27;;;49.00;;
5137;SDS011;53959;53.626;11.410;2022-12-01T01:34:54;138.97;;;47.00;;
5137;SDS011;53959;53.626;11.410;2022-12-01T01:37:19;153.03;;;48.50;;
5137;SDS011;53959;53.626;11.410;2022-12-01T01:39:45;140.97;;;49.43;;
5137;SDS011;53959;53.626;11.410;2022-12-01T01:42:13;150.87;;;48.77;;
5137;SDS011;53959;53.626;11.410;2022-12-01T01:44:45;155.90;;;47.37;;
5137;SDS011;53959;53.626;11.410;2022-12-01T01:47:20;136.20;;;44.70;;
5137;SDS011;53959;53.626;11.410;2022-12-01T01:49:50;157.07;;;48.20;;
5137;SDS011;53959;53.626;11.410;2022-12-01T01:52:17;162.10;;;50.13;;
5137;SDS011;53959;53.626;11.410;2022-12-01T01:54:43;150.07;;;46.30;;
5137;SDS011;53959;53.626;11.410;2022-12-01T01:57:12;145.50;;;47.13;;
5137;SDS011;53959;53.626;11.410;2022-12-01T01:59:42;136.47;;;45.30;;
5137;SDS011;53959;53.626;11.410;2022-12-01T02:02:11;147.67;;;45.00;;
5137;SDS011;53959;53.626;11.410;2022-12-01T02:04:38;143.90;;;48.87;;
5137;SDS011;53959;53.626;11.410;2022-12-01T02:07:06;134.53;;;44.70;;
5137;SDS011;53959;53.626;11.410;2022-12-01T02:09:32;147.63;;;43.17;;
5137;SDS011;53959;53.626;11.410;2022-12-01T02:12:11;143.17;;;43.80;;
5137;SDS011;53959;53.626;11.410;2022-12-01T02:18:24;154.30;;;45.93;;
5137;SDS011;53959;53.626;11.410;2022-12-01T02:21:06;167.03;;;48.00;;
5137;SDS011;53959;53.626;11.410;2022-12-01T02:26:47;148.10;;;45.07;;
5137;SDS011;53959;53.626;11.410;2022-12-01T02:32:14;156.13;;;44.67;;
5137;SDS011;53959;53.626;11.410;2022-12-01T02:34:56;165.00;;;45.67;;
5137;SDS011;53959;53.626;11.410;2022-12-01T02:37:54;159.90;;;48.47;;
5137;SDS011;53959;53.626;11.410;2022-12-01T02:40:37;147.20;;;42.07;;
5137;SDS011;53959;53.626;11.410;2022-12-01T02:43:06;140.10;;;43.73;;
5137;SDS011;53959;53.626;11.410;2022-12-01T02:45:43;165.30;;;44.10;;
5137;SDS011;53959;53.626;11.410;2022-12-01T02:48:30;156.27;;;47.67;;
5137;SDS011;53959;53.626;11.410;2022-12-01T02:51:00;121.80;;;40.77;;
5137;SDS011;53959;53.626;11.410;2022-12-01T02:53:38;142.67;;;42.90;;
5137;SDS011;53959;53.626;11.410;2022-12-01T02:56:05;147.13;;;43.53;;
5137;SDS011;53959;53.626;11.410;2022-12-01T02:58:33;132.53;;;40.37;;
5137;SDS011;53959;53.626;11.410;2022-12-01T03:04:26;136.43;;;40.33;;
5137;SDS011;53959;53.626;11.410;2022-12-01T03:09:49;134.57;;;39.90;;
5137;SDS011;53959;53.626;11.410;2022-12-01T03:12:40;139.97;;;40.40;;
5137;SDS011;53959;53.626;11.410;2022-12-01T03:15:27;133.23;;;41.10;;
5137;SDS011;53959;53.626;11.410;2022-12-01T03:21:14;138.80;;;40.60;;
5137;SDS011;53959;53.626;11.410;2022-12-01T03:23:49;171.17;;;43.17;;
5137;SDS011;53959;53.626;11.410;2022-12-01T03:26:18;166.83;;;45.27;;
5137;SDS011;53959;53.626;11.410;2022-12-01T03:28:49;153.97;;;44.17;;
5137;SDS011;53959;53.626;11.410;2022-12-01T03:31:22;153.80;;;42.27;;
5137;SDS011;53959;53.626;11.410;2022-12-01T03:33:53;151.80;;;43.53;;
5137;SDS011;53959;53.626;11.410;2022-12-01T03:36:30;139.57;;;42.10;;
5137;SDS011;53959;53.626;11.410;2022-12-01T03:39:02;150.33;;;43.10;;
5137;SDS011;53959;53.626;11.410;2022-12-01T03:41:34;117.67;;;39.27;;
5137;SDS011;53959;53.626;11.410;2022-12-01T03:44:07;148.20;;;41.27;;
5137;SDS011;53959;53.626;11.410;2022-12-01T03:49:25;154.37;;;43.27;;
5137;SDS011;53959;53.626;11.410;2022-12-01T03:57:45;163.97;;;43.87;;
5137;SDS011;53959;53.626;11.410;2022-12-01T04:00:14;169.67;;;42.33;;
5137;SDS011;53959;53.626;11.410;2022-12-01T04:02:41;171.53;;;43.77;;
5137;SDS011;53959;53.626;11.410;2022-12-01T04:05:07;166.27;;;43.77;;
5137;SDS011;53959;53.626;11.410;2022-12-01T04:07:33;180.47;;;45.07;;
5137;SDS011;53959;53.626;11.410;2022-12-01T04:09:59;198.27;;;47.10;;
5137;SDS011;53959;53.626;11.410;2022-12-01T04:12:25;169.30;;;44.90;;
5137;SDS011;53959;53.626;11.410;2022-12-01T04:14:53;174.20;;;43.23;;
5137;SDS011;53959;53.626;11.410;2022-12-01T04:17:26;167.43;;;44.77;;
5137;SDS011;53959;53.626;11.410;2022-12-01T04:19:52;170.27;;;43.37;;
5137;SDS011;53959;53.626;11.410;2022-12-01T04:22:18;180.37;;;43.40;;
5137;SDS011;53959;53.626;11.410;2022-12-01T04:24:44;177.40;;;44.50;;
5137;SDS011;53959;53.626;11.410;2022-12-01T04:27:09;194.13;;;46.07;;
5137;SDS011;53959;53.626;11.410;2022-12-01T04:29:35;193.67;;;45.67;;
5137;SDS011;53959;53.626;11.410;2022-12-01T04:32:01;189.87;;;45.20;;
5137;SDS011;53959;53.626;11.410;2022-12-01T04:34:26;171.90;;;41.57;;
5137;SDS011;53959;53.626;11.410;2022-12-01T04:36:52;182.03;;;42.40;;
5137;SDS011;53959;53.626;11.410;2022-12-01T04:39:17;196.60;;;46.83;;
5137;SDS011;53959;53.626;11.410;2022-12-01T04:41:43;200.03;;;47.53;;
5137;SDS011;53959;53.626;11.410;2022-12-01T04:44:09;206.47;;;44.70;;
5137;SDS011;53959;53.626;11.410;2022-12-01T04:46:35;189.63;;;47.13;;
5137;SDS011;53959;53.626;11.410;2022-12-01T04:49:01;208.60;;;44.63;;
5137;SDS011;53959;53.626;11.410;2022-12-01T04:51:27;200.53;;;45.00;;
5137;SDS011;53959;53.626;11.410;2022-12-01T04:53:52;190.77;;;42.97;;
5137;SDS011;53959;53.626;11.410;2022-12-01T04:56:18;206.17;;;44.87;;
5137;SDS011;53959;53.626;11.410;2022-12-01T04:58:44;200.13;;;46.73;;
5137;SDS011;53959;53.626;11.410;2022-12-01T05:01:10;179.80;;;44.37;;
5137;SDS011;53959;53.626;11.410;2022-12-01T05:03:41;232.67;;;45.80;;
5137;SDS011;53959;53.626;11.410;2022-12-01T05:06:09;185.30;;;43.23;;
5137;SDS011;53959;53.626;11.410;2022-12-01T05:08:37;215.37;;;47.73;;
5137;SDS011;53959;53.626;11.410;2022-12-01T05:11:03;200.37;;;46.30;;
5137;SDS011;53959;53.626;11.410;2022-12-01T05:13:31;215.27;;;45.20;;
5137;SDS011;53959;53.626;11.410;2022-12-01T05:16:04;189.90;;;44.77;;
5137;SDS011;53959;53.626;11.410;2022-12-01T05:18:30;196.77;;;45.90;;
5137;SDS011;53959;53.626;11.410;2022-12-01T05:20:56;231.70;;;46.73;;
5137;SDS011;53959;53.626;11.410;2022-12-01T05:23:22;196.07;;;43.83;;
5137;SDS011;53959;53.626;11.410;2022-12-01T05:25:52;223.87;;;45.40;;
5137;SDS011;53959;53.626;11.410;2022-12-01T05:28:18;217.33;;;47.70;;
5137;SDS011;53959;53.626;11.410;2022-12-01T05:30:43;211.07;;;45.30;;
5137;SDS011;53959;53.626;11.410;2022-12-01T05:33:09;204.57;;;44.93;;
5137;SDS011;53959;53.626;11.410;2022-12-01T05:35:35;186.00;;;44.53;;
5137;SDS011;53959;53.626;11.410;2022-12-01T05:38:00;205.23;;;46.40;;
5137;SDS011;53959;53.626;11.410;2022-12-01T05:40:26;212.00;;;44.97;;
5137;SDS011;53959;53.626;11.410;2022-12-01T05:42:52;225.80;;;45.13;;
5137;SDS011;53959;53.626;11.410;2022-12-01T05:45:17;240.87;;;47.33;;
5137;SDS011;53959;53.626;11.410;2022-12-01T05:47:43;226.93;;;46.50;;
5137;SDS011;53959;53.626;11.410;2022-12-01T05:50:08;208.33;;;45.60;;
5137;SDS011;53959;53.626;11.410;2022-12-01T05:52:34;214.30;;;41.03;;
5137;SDS011;53959;53.626;11.410;2022-12-01T05:55:01;218.17;;;44.03;;
5137;SDS011;53959;53.626;11.410;2022-12-01T05:57:30;206.80;;;44.53;;
5137;SDS011;53959;53.626;11.410;2022-12-01T05:59:56;205.43;;;41.83;;
5137;SDS011;53959;53.626;11.410;2022-12-01T06:02:22;199.70;;;42.30;;
5137;SDS011;53959;53.626;11.410;2022-12-01T06:04:47;194.93;;;43.23;;
5137;SDS011;53959;53.626;11.410;2022-12-01T06:07:13;243.23;;;44.93;;
5137;SDS011;53959;53.626;11.410;2022-12-01T06:09:38;224.77;;;45.30;;
5137;SDS011;53959;53.626;11.410;2022-12-01T06:12:04;227.37;;;46.90;;
5137;SDS011;53959;53.626;11.410;2022-12-01T06:14:29;192.03;;;43.50;;
5137;SDS011;53959;53.626;11.410;2022-12-01T06:16:55;204.33;;;44.60;;
5137;SDS011;53959;53.626;11.410;2022-12-01T06:19:20;224.80;;;44.93;;
5137;SDS011;53959;53.626;11.410;2022-12-01T06:21:46;226.50;;;44.10;;
5137;SDS011;53959;53.626;11.410;2022-12-01T06:24:12;236.10;;;43.37;;
5137;SDS011;53959;53.626;11.410;2022-12-01T06:26:37;225.57;;;42.30;;
5137;SDS011;53959;53.626;11.410;2022-12-01T06:29:03;187.63;;;41.50;;
5137;SDS011;53959;53.626;11.410;2022-12-01T06:31:28;223.67;;;44.40;;
5137;SDS011;53959;53.626;11.410;2022-12-01T06:33:53;217.43;;;44.30;;
5137;SDS011;53959;53.626;11.410;2022-12-01T06:36:19;224.03;;;42.70;;
5137;SDS011;53959;53.626;11.410;2022-12-01T06:38:44;193.10;;;39.27;;
5137;SDS011;53959;53.626;11.410;2022-12-01T06:41:10;215.53;;;41.93;;
5137;SDS011;53959;53.626;11.410;2022-12-01T06:43:36;231.20;;;43.50;;
5137;SDS011;53959;53.626;11.410;2022-12-01T06:46:02;199.10;;;42.10;;
5137;SDS011;53959;53.626;11.410;2022-12-01T06:48:29;204.80;;;43.13;;
5137;SDS011;53959;53.626;11.410;2022-12-01T06:50:56;194.27;;;42.40;;
5137;SDS011;53959;53.626;11.410;2022-12-01T06:53:22;181.57;;;38.17;;
5137;SDS011;53959;53.626;11.410;2022-12-01T06:55:48;152.77;;;38.23;;
5137;SDS011;53959;53.626;11.410;2022-12-01T06:58:14;181.57;;;39.17;;
5137;SDS011;53959;53.626;11.410;2022-12-01T07:00:40;178.13;;;39.30;;
5137;SDS011;53959;53.626;11.410;2022-12-01T07:03:06;169.43;;;38.17;;
5137;SDS011;53959;53.626;11.410;2022-12-01T07:05:32;176.37;;;40.03;;
5137;SDS011;53959;53.626;11.410;2022-12-01T07:07:57;164.27;;;38.63;;
5137;SDS011;53959;53.626;11.410;2022-12-01T07:10:24;179.37;;;39.10;;
5137;SDS011;53959;53.626;11.410;2022-12-01T07:12:49;196.93;;;39.80;;
5137;SDS011;53959;53.626;11.410;2022-12-01T07:15:15;177.77;;;36.50;;
5137;SDS011;53959;53.626;11.410;2022-12-01T07:17:40;165.47;;;37.43;;
5137;SDS011;53959;53.626;11.410;2022-12-01T07:20:06;173.20;;;35.60;;
5137;SDS011;53959;53.626;11.410;2022-12-01T07:22:34;183.43;;;38.03;;
5137;SDS011;53959;53.626;11.410;2022-12-01T07:25:00;185.07;;;36.90;;
5137;SDS011;53959;53.626;11.410;2022-12-01T07:27:28;170.43;;;33.97;;
5137;SDS011;53959;53.626;11.410;2022-12-01T07:29:55;191.77;;;36.57;;
5137;SDS011;53959;53.626;11.410;2022-12-01T07:32:20;174.43;;;36.93;;
5137;SDS011;53959;53.626;11.410;2022-12-01T07:34:46;167.00;;;33.93;;
5137;SDS011;53959;53.626;11.410;2022-12-01T07:37:11;153.73;;;33.77;;
5137;SDS011;53959;53.626;11.410;2022-12-01T07:39:37;138.87;;;31.17;;
5137;SDS011;53959;53.626;11.410;2022-12-01T07:42:02;149.33;;;32.67;;
5137;SDS011;53959;53.626;11.410;2022-12-01T07:44:28;167.50;;;32.37;;
5137;SDS011;53959;53.626;11.410;2022-12-01T07:46:53;150.33;;;30.20;;
5137;SDS011;53959;53.626;11.410;2022-12-01T07:49:19;148.63;;;35.10;;
5137;SDS011;53959;53.626;11.410;2022-12-01T07:51:45;165.03;;;34.30;;
5137;SDS011;53959;53.626;11.410;2022-12-01T07:54:10;142.60;;;32.03;;
5137;SDS011;53959;53.626;11.410;2022-12-01T07:56:38;135.00;;;30.93;;
5137;SDS011;53959;53.626;11.410;2022-12-01T07:59:04;117.80;;;28.73;;
5137;SDS011;53959;53.626;11.410;2022-12-01T08:01:30;129.00;;;30.27;;
5137;SDS011;53959;53.626;11.410;2022-12-01T08:03:56;127.00;;;29.40;;
5137;SDS011;53959;53.626;11.410;2022-12-01T08:06:23;107.33;;;28.37;;
5137;SDS011;53959;53.626;11.410;2022-12-01T08:08:49;131.23;;;27.93;;
5137;SDS011;53959;53.626;11.410;2022-12-01T08:11:19;112.00;;;28.50;;
5137;SDS011;53959;53.626;11.410;2022-12-01T08:13:50;134.70;;;30.23;;
5137;SDS011;53959;53.626;11.410;2022-12-01T08:16:17;124.00;;;30.50;;
5137;SDS011;53959;53.626;11.410;2022-12-01T08:18:44;120.53;;;31.90;;
5137;SDS011;53959;53.626;11.410;2022-12-01T08:21:10;119.73;;;30.97;;
5137;SDS011;53959;53.626;11.410;2022-12-01T08:23:38;112.10;;;29.80;;
5137;SDS011;53959;53.626;11.410;2022-12-01T08:26:05;118.13;;;28.57;;
5137;SDS011;53959;53.626;11.410;2022-12-01T08:28:34;106.70;;;26.97;;
5137;SDS011;53959;53.626;11.410;2022-12-01T08:31:14;121.73;;;26.30;;
5137;SDS011;53959;53.626;11.410;2022-12-01T08:33:44;112.37;;;26.33;;
5137;SDS011;53959;53.626;11.410;2022-12-01T08:36:10;123.97;;;26.20;;
5137;SDS011;53959;53.626;11.410;2022-12-01T08:38:36;108.07;;;25.77;;
5137;SDS011;53959;53.626;11.410;2022-12-01T08:41:02;110.43;;;26.00;;
5137;SDS011;53959;53.626;11.410;2022-12-01T08:43:29;102.17;;;25.93;;
5137;SDS011;53959;53.626;11.410;2022-12-01T08:45:59;112.07;;;25.63;;
5137;SDS011;53959;53.626;11.410;2022-12-01T08:48:26;120.60;;;27.23;;
5137;SDS011;53959;53.626;11.410;2022-12-01T08:50:59;108.90;;;27.47;;
5137;SDS011;53959;53.626;11.410;2022-12-01T08:53:33;118.87;;;27.87;;
5137;SDS011;53959;53.626;11.410;2022-12-01T08:56:01;111.00;;;25.50;;
5137;SDS011;53959;53.626;11.410;2022-12-01T08:58:33;98.00;;;25.70;;
5137;SDS011;53959;53.626;11.410;2022-12-01T09:01:06;84.20;;;23.50;;
5137;SDS011;53959;53.626;11.410;2022-12-01T09:03:35;81.93;;;22.27;;
5137;SDS011;53959;53.626;11.410;2022-12-01T09:06:02;90.83;;;21.30;;
5137;SDS011;53959;53.626;11.410;2022-12-01T09:08:29;95.97;;;23.90;;
5137;SDS011;53959;53.626;11.410;2022-12-01T09:10:56;100.00;;;24.40;;
5137;SDS011;53959;53.626;11.410;2022-12-01T09:13:22;100.70;;;23.40;;
5137;SDS011;53959;53.626;11.410;2022-12-01T09:16:00;92.70;;;24.17;;
5137;SDS011;53959;53.626;11.410;2022-12-01T09:18:28;99.23;;;23.90;;
5137;SDS011;53959;53.626;11.410;2022-12-01T09:20:55;106.63;;;25.13;;
5137;SDS011;53959;53.626;11.410;2022-12-01T09:23:21;83.33;;;21.47;;
5137;SDS011;53959;53.626;11.410;2022-12-01T09:25:47;110.53;;;26.50;;
5137;SDS011;53959;53.626;11.410;2022-12-01T09:28:14;92.30;;;25.70;;
5137;SDS011;53959;53.626;11.410;2022-12-01T09:30:39;88.93;;;23.50;;
5137;SDS011;53959;53.626;11.410;2022-12-01T09:33:05;116.20;;;26.53;;
5137;SDS011;53959;53.626;11.410;2022-12-01T09:35:31;110.83;;;25.17;;
5137;SDS011;53959;53.626;11.410;2022-12-01T09:37:57;116.67;;;27.93;;
5137;SDS011;53959;53.626;11.410;2022-12-01T09:40:29;107.70;;;26.87;;
5137;SDS011;53959;53.626;11.410;2022-12-01T09:42:58;146.70;;;29.00;;
5137;SDS011;53959;53.626;11.410;2022-12-01T09:45:30;127.17;;;25.20;;
5137;SDS011;53959;53.626;11.410;2022-12-01T09:48:00;138.70;;;27.83;;
5137;SDS011;53959;53.626;11.410;2022-12-01T09:50:29;122.80;;;28.83;;
5137;SDS011;53959;53.626;11.410;2022-12-01T09:52:59;140.27;;;30.27;;
5137;SDS011;53959;53.626;11.410;2022-12-01T09:55:39;144.93;;;32.13;;
5137;SDS011;53959;53.626;11.410;2022-12-01T09:58:04;127.80;;;31.30;;
5137;SDS011;53959;53.626;11.410;2022-12-01T10:00:41;159.80;;;33.07;;
5137;SDS011;53959;53.626;11.410;2022-12-01T10:05:43;168.57;;;34.17;;
5137;SDS011;53959;53.626;11.410;2022-12-01T10:08:13;141.30;;;31.10;;
5137;SDS011;53959;53.626;11.410;2022-12-01T10:10:42;147.90;;;31.43;;
5137;SDS011;53959;53.626;11.410;2022-12-01T10:13:16;154.73;;;34.20;;
5137;SDS011;53959;53.626;11.410;2022-12-01T10:20:51;184.10;;;34.27;;
5137;SDS011;53959;53.626;11.410;2022-12-01T10:23:40;164.23;;;35.27;;
5137;SDS011;53959;53.626;11.410;2022-12-01T10:26:13;173.43;;;36.93;;
5137;SDS011;53959;53.626;11.410;2022-12-01T10:31:30;139.90;;;31.40;;
5137;SDS011;53959;53.626;11.410;2022-12-01T10:34:05;177.63;;;34.30;;
5137;SDS011;53959;53.626;11.410;2022-12-01T10:36:31;134.07;;;34.17;;
5137;SDS011;53959;53.626;11.410;2022-12-01T10:38:59;151.93;;;35.30;;
5137;SDS011;53959;53.626;11.410;2022-12-01T10:41:26;161.00;;;35.83;;
5137;SDS011;53959;53.626;11.410;2022-12-01T10:43:57;162.23;;;35.60;;
5137;SDS011;53959;53.626;11.410;2022-12-01T10:49:11;137.47;;;33.33;;
5137;SDS011;53959;53.626;11.410;2022-12-01T10:51:46;174.37;;;35.20;;
5137;SDS011;53959;53.626;11.410;2022-12-01T10:54:20;148.17;;;34.27;;
5137;SDS011;53959;53.626;11.410;2022-12-01T10:56:47;150.43;;;33.27;;
5137;SDS011;53959;53.626;11.410;2022-12-01T10:59:25;178.23;;;35.30;;
5137;SDS011;53959;53.626;11.410;2022-12-01T11:02:19;145.57;;;34.60;;
5137;SDS011;53959;53.626;11.410;2022-12-01T11:07:18;141.97;;;32.40;;
5137;SDS011;53959;53.626;11.410;2022-12-01T11:10:20;150.80;;;34.73;;
5137;SDS011;53959;53.626;11.410;2022-12-01T11:15:52;156.20;;;31.37;;
5137;SDS011;53959;53.626;11.410;2022-12-01T11:23:44;131.03;;;31.77;;
5137;SDS011;53959;53.626;11.410;2022-12-01T11:26:32;134.80;;;32.43;;
5137;SDS011;53959;53.626;11.410;2022-12-01T11:29:20;157.33;;;33.47;;
5137;SDS011;53959;53.626;11.410;2022-12-01T11:32:14;121.27;;;30.00;;
5137;SDS011;53959;53.626;11.410;2022-12-01T11:34:41;115.53;;;30.63;;
5137;SDS011;53959;53.626;11.410;2022-12-01T11:37:16;120.10;;;28.67;;
5137;SDS011;53959;53.626;11.410;2022-12-01T11:39:44;102.20;;;26.27;;
5137;SDS011;53959;53.626;11.410;2022-12-01T11:44:54;128.10;;;31.90;;
5137;SDS011;53959;53.626;11.410;2022-12-01T11:47:27;108.50;;;28.53;;
5137;SDS011;53959;53.626;11.410;2022-12-01T11:49:57;109.13;;;28.90;;
5137;SDS011;53959;53.626;11.410;2022-12-01T11:52:30;110.07;;;27.63;;
5137;SDS011;53959;53.626;11.410;2022-12-01T11:54:58;112.67;;;29.47;;
5137;SDS011;53959;53.626;11.410;2022-12-01T11:57:29;125.47;;;28.73;;
5137;SDS011;53959;53.626;11.410;2022-12-01T11:59:55;118.07;;;28.50;;
5137;SDS011;53959;53.626;11.410;2022-12-01T12:05:25;136.47;;;31.97;;
5137;SDS011;53959;53.626;11.410;2022-12-01T12:08:26;127.37;;;30.23;;
5137;SDS011;53959;53.626;11.410;2022-12-01T12:25:21;102.30;;;27.77;;
5137;SDS011;53959;53.626;11.410;2022-12-01T12:33:38;91.47;;;25.80;;
5137;SDS011;53959;53.626;11.410;2022-12-01T12:36:41;86.87;;;25.27;;
5137;SDS011;53959;53.626;11.410;2022-12-01T12:39:15;91.53;;;25.67;;
5137;SDS011;53959;53.626;11.410;2022-12-01T12:41:44;85.30;;;24.43;;
5137;SDS011;53959;53.626;11.410;2022-12-01T12:57:34;121.47;;;32.27;;
5137;SDS011;53959;53.626;11.410;2022-12-01T13:00:12;109.57;;;29.37;;
5137;SDS011;53959;53.626;11.410;2022-12-01T13:02:40;111.23;;;28.87;;
5137;SDS011;53959;53.626;11.410;2022-12-01T13:05:29;114.67;;;30.03;;
5137;SDS011;53959;53.626;11.410;2022-12-01T13:08:04;115.10;;;28.60;;
5137;SDS011;53959;53.626;11.410;2022-12-01T13:13:23;118.67;;;31.47;;
5137;SDS011;53959;53.626;11.410;2022-12-01T13:15:55;120.27;;;29.60;;
5137;SDS011;53959;53.626;11.410;2022-12-01T13:18:25;123.33;;;31.70;;
5137;SDS011;53959;53.626;11.410;2022-12-01T13:20:57;117.23;;;32.67;;
5137;SDS011;53959;53.626;11.410;2022-12-01T13:23:26;108.40;;;30.80;;
5137;SDS011;53959;53.626;11.410;2022-12-01T13:25:53;107.77;;;27.57;;
5137;SDS011;53959;53.626;11.410;2022-12-01T13:28:22;93.00;;;27.97;;
5137;SDS011;53959;53.626;11.410;2022-12-01T13:33:27;132.57;;;31.33;;
5137;SDS011;53959;53.626;11.410;2022-12-01T13:35:54;120.53;;;31.17;;
5137;SDS011;53959;53.626;11.410;2022-12-01T13:41:13;123.27;;;30.40;;
5137;SDS011;53959;53.626;11.410;2022-12-01T13:43:55;110.40;;;29.60;;
5137;SDS011;53959;53.626;11.410;2022-12-01T13:49:30;120.30;;;30.07;;
5137;SDS011;53959;53.626;11.410;2022-12-01T13:57:38;118.00;;;29.33;;
5137;SDS011;53959;53.626;11.410;2022-12-01T14:05:53;103.80;;;27.10;;
5137;SDS011;53959;53.626;11.410;2022-12-01T14:08:34;86.03;;;26.10;;
5137;SDS011;53959;53.626;11.410;2022-12-01T14:11:14;97.17;;;27.10;;
5137;SDS011;53959;53.626;11.410;2022-12-01T14:13:49;96.70;;;26.47;;
5137;SDS011;53959;53.626;11.410;2022-12-01T14:16:21;98.27;;;27.23;;
5137;SDS011;53959;53.626;11.410;2022-12-01T14:21:40;95.00;;;26.20;;
5137;SDS011;53959;53.626;11.410;2022-12-01T14:24:17;104.80;;;28.90;;
5137;SDS011;53959;53.626;11.410;2022-12-01T14:26:46;121.30;;;28.60;;
5137;SDS011;53959;53.626;11.410;2022-12-01T14:34:33;139.30;;;32.20;;
5137;SDS011;53959;53.626;11.410;2022-12-01T14:37:08;139.47;;;30.97;;
5137;SDS011;53959;53.626;11.410;2022-12-01T14:39:38;120.33;;;29.97;;
5137;SDS011;53959;53.626;11.410;2022-12-01T14:44:41;118.97;;;31.70;;
5137;SDS011;53959;53.626;11.410;2022-12-01T14:47:28;113.70;;;27.90;;
5137;SDS011;53959;53.626;11.410;2022-12-01T14:50:12;105.37;;;26.73;;
5137;SDS011;53959;53.626;11.410;2022-12-01T14:52:43;115.53;;;30.00;;
5137;SDS011;53959;53.626;11.410;2022-12-01T14:55:14;105.03;;;27.13;;
5137;SDS011;53959;53.626;11.410;2022-12-01T14:57:44;116.23;;;31.53;;
5137;SDS011;53959;53.626;11.410;2022-12-01T15:00:23;98.00;;;26.63;;
5137;SDS011;53959;53.626;11.410;2022-12-01T15:05:19;89.60;;;23.00;;
5137;SDS011;53959;53.626;11.410;2022-12-01T15:07:50;108.07;;;27.83;;
5137;SDS011;53959;53.626;11.410;2022-12-01T15:10:18;103.47;;;24.93;;
5137;SDS011;53959;53.626;11.410;2022-12-01T15:12:44;108.57;;;28.70;;
5137;SDS011;53959;53.626;11.410;2022-12-01T15:15:28;104.83;;;28.40;;
5137;SDS011;53959;53.626;11.410;2022-12-01T15:17:54;108.33;;;29.20;;
5137;SDS011;53959;53.626;11.410;2022-12-01T15:22:56;101.17;;;29.60;;
5137;SDS011;53959;53.626;11.410;2022-12-01T15:25:22;99.07;;;25.50;;
5137;SDS011;53959;53.626;11.410;2022-12-01T15:28:03;101.80;;;25.60;;
5137;SDS011;53959;53.626;11.410;2022-12-01T15:30:37;90.50;;;25.27;;
5137;SDS011;53959;53.626;11.410;2022-12-01T15:33:17;100.13;;;25.67;;
5137;SDS011;53959;53.626;11.410;2022-12-01T15:35:48;111.90;;;28.27;;
5137;SDS011;53959;53.626;11.410;2022-12-01T15:38:16;104.93;;;29.43;;
5137;SDS011;53959;53.626;11.410;2022-12-01T15:40:45;109.80;;;26.33;;
5137;SDS011;53959;53.626;11.410;2022-12-01T15:43:13;124.23;;;31.93;;
5137;SDS011;53959;53.626;11.410;2022-12-01T15:45:53;108.97;;;28.03;;
5137;SDS011;53959;53.626;11.410;2022-12-01T15:48:24;107.60;;;27.80;;
5137;SDS011;53959;53.626;11.410;2022-12-01T15:53:30;115.13;;;30.40;;
5137;SDS011;53959;53.626;11.410;2022-12-01T15:55:57;119.50;;;30.07;;
5137;SDS011;53959;53.626;11.410;2022-12-01T15:58:27;103.93;;;25.57;;
5137;SDS011;53959;53.626;11.410;2022-12-01T16:00:59;92.33;;;25.90;;
5137;SDS011;53959;53.626;11.410;2022-12-01T16:03:29;98.57;;;26.13;;
5137;SDS011;53959;53.626;11.410;2022-12-01T16:06:12;95.97;;;27.87;;
5137;SDS011;53959;53.626;11.410;2022-12-01T16:08:37;111.03;;;27.50;;
5137;SDS011;53959;53.626;11.410;2022-12-01T16:11:10;95.70;;;25.27;;
5137;SDS011;53959;53.626;11.410;2022-12-01T16:13:57;80.60;;;25.13;;
5137;SDS011;53959;53.626;11.410;2022-12-01T16:21:21;94.27;;;26.87;;
5137;SDS011;53959;53.626;11.410;2022-12-01T16:23:48;88.90;;;26.30;;
5137;SDS011;53959;53.626;11.410;2022-12-01T16:26:21;95.30;;;24.47;;
5137;SDS011;53959;53.626;11.410;2022-12-01T16:28:46;95.83;;;25.70;;
5137;SDS011;53959;53.626;11.410;2022-12-01T16:31:18;102.10;;;25.70;;
5137;SDS011;53959;53.626;11.410;2022-12-01T16:33:44;81.80;;;25.13;;
5137;SDS011;53959;53.626;11.410;2022-12-01T16:36:10;86.20;;;23.50;;
5137;SDS011;53959;53.626;11.410;2022-12-01T16:38:38;84.60;;;23.50;;
5137;SDS011;53959;53.626;11.410;2022-12-01T16:41:13;108.17;;;27.27;;
5137;SDS011;53959;53.626;11.410;2022-12-01T16:43:40;100.87;;;26.87;;